Time;durP1;ratioP1;P1;durP2;ratioP2;P2;SDS_P1;SDS_P2;PMS_P1;PMS_P2;Temp;Humidity;BMP_temperature;BMP_pressure;BME280_temperature;BME280_humidity;BME280_pressure;Samples;Min_cycle;Max_cycle;Signal;HPM_P1;HPM_P2
2022/02/04 00:21:18;;;;;;;0.50;0.50;;;6.20;99.90;;;;;;5022463;28;20460;-72
2022/02/04 00:23:38;;;;;;;0.40;0.20;;;6.20;99.90;;;;;;5030492;28;20501;-71
2022/02/04 00:26:13;;;;;;;1.10;1.10;;;5.90;99.90;;;;;;5030880;28;20415;-71
2022/02/04 00:31:26;;;;;;;0.40;0.20;;;6.00;99.90;;;;;;5013547;28;20379;-71
2022/02/04 00:33:53;;;;;;;0.90;0.80;;;5.80;99.90;;;;;;5030449;28;20414;-71
2022/02/04 00:36:29;;;;;;;0.40;0.20;;;5.40;99.90;;;;;;5030812;28;20419;-71
2022/02/04 00:38:57;;;;;;;0.40;0.25;;;5.30;99.90;;;;;;5031022;28;20403;-71
2022/02/04 00:41:27;;;;;;;0.40;0.20;;;5.30;99.90;;;;;;5029733;28;20448;-71
2022/02/04 00:43:55;;;;;;;0.40;0.30;;;5.30;99.90;;;;;;5030487;28;20391;-72
2022/02/04 00:46:35;;;;;;;0.40;0.20;;;5.20;99.90;;;;;;5030803;28;20676;-70
2022/02/04 00:49:24;;;;;;;0.40;0.30;;;5.40;99.90;;;;;;5030657;28;20891;-70
2022/02/04 00:52:05;;;;;;;0.47;0.47;;;5.50;99.90;;;;;;5028949;28;20394;-70
2022/02/04 01:27:12;;;;;;;0.50;0.50;;;6.10;99.90;;;;;;5029535;28;20426;-70
2022/02/04 01:29:49;;;;;;;0.80;0.65;;;6.10;99.90;;;;;;5029676;28;20906;-71
2022/02/04 01:32:15;;;;;;;0.70;0.70;;;6.10;99.90;;;;;;5028215;28;20457;-71
2022/02/04 01:34:41;;;;;;;0.40;0.20;;;6.10;99.90;;;;;;5030028;28;20470;-71
2022/02/04 01:37:07;;;;;;;0.40;0.20;;;6.20;99.90;;;;;;5012231;28;20498;-72
2022/02/04 01:39:32;;;;;;;0.40;0.20;;;6.20;99.90;;;;;;5012381;28;20419;-71
2022/02/04 01:42:00;;;;;;;0.40;0.20;;;6.10;99.90;;;;;;5029842;28;20446;-70
2022/02/04 01:44:27;;;;;;;0.40;0.20;;;6.30;99.90;;;;;;5029605;28;20391;-71
2022/02/04 01:46:54;;;;;;;0.40;0.20;;;6.20;99.90;;;;;;5029674;28;20907;-70
2022/02/04 01:49:22;;;;;;;0.40;0.20;;;6.20;99.90;;;;;;5029285;28;20433;-71
2022/02/04 01:51:48;;;;;;;0.60;0.60;;;6.20;99.90;;;;;;5029777;28;20467;-70
2022/02/04 01:54:14;;;;;;;0.52;0.50;;;6.00;99.90;;;;;;5029966;28;20932;-70
2022/02/04 01:56:39;;;;;;;0.65;0.65;;;6.00;99.90;;;;;;5029141;28;20375;-70
2022/02/04 01:59:05;;;;;;;0.50;0.50;;;6.10;99.90;;;;;;5029421;28;20526;-71
2022/02/04 02:01:32;;;;;;;0.90;0.70;;;5.90;99.90;;;;;;5011318;28;20418;-71
2022/02/04 02:04:00;;;;;;;0.40;0.20;;;6.10;99.90;;;;;;5030011;28;20470;-71
2022/02/04 02:06:47;;;;;;;0.47;0.43;;;6.00;99.90;;;;;;5029546;28;20438;-71
2022/02/04 02:09:14;;;;;;;1.60;0.80;;;5.80;99.90;;;;;;5029968;28;20387;-71
2022/02/04 02:11:40;;;;;;;0.40;0.30;;;5.80;99.90;;;;;;5029070;28;20390;-71
2022/02/04 02:14:10;;;;;;;0.40;0.20;;;5.80;99.90;;;;;;5030045;28;20379;-71
2022/02/04 02:33:05;;;;;;;0.60;0.60;;;6.20;99.90;;;;;;5029147;28;20390;-72
2022/02/04 02:33:58;;;;;;;2.20;1.30;;;6.60;99.90;;;;;;5033472;28;20403;-70
2022/02/04 02:46:51;;;;;;;0.40;0.20;;;6.70;99.90;;;;;;5015909;28;20844;-70
2022/02/04 02:50:03;;;;;;;0.40;0.40;;;6.80;99.90;;;;;;5032490;28;20368;-71
2022/02/04 02:52:20;;;;;;;0.43;0.32;;;6.70;99.90;;;;;;5031753;28;20399;-71
2022/02/04 02:55:08;;;;;;;0.40;0.40;;;6.70;99.90;;;;;;5033213;28;20421;-71
2022/02/04 03:03:15;;;;;;;2.30;1.30;;;6.60;99.90;;;;;;4971044;28;20403;-71
2022/02/04 03:05:41;;;;;;;0.90;0.68;;;6.60;99.90;;;;;;5004888;28;20485;-71
2022/02/04 03:08:07;;;;;;;0.90;0.73;;;6.50;99.90;;;;;;5032983;28;20474;-71
2022/02/04 03:10:33;;;;;;;0.50;0.50;;;6.40;99.90;;;;;;5032102;28;20423;-70
2022/02/04 03:12:59;;;;;;;1.10;1.00;;;6.40;99.90;;;;;;5032509;28;20433;-70
2022/02/04 03:15:25;;;;;;;0.40;0.30;;;6.50;99.90;;;;;;5031278;28;20819;-71
2022/02/04 03:18:04;;;;;;;0.40;0.20;;;6.50;99.90;;;;;;5032648;28;20414;-71
2022/02/04 03:20:37;;;;;;;0.63;0.63;;;6.50;99.90;;;;;;5031792;28;20410;-71
2022/02/04 03:23:03;;;;;;;0.40;0.20;;;6.50;99.90;;;;;;5032592;28;20379;-71
2022/02/04 03:25:36;;;;;;;0.40;0.30;;;6.60;99.90;;;;;;5031675;28;20380;-71
2022/02/04 03:28:01;;;;;;;1.60;0.98;;;6.60;99.90;;;;;;5032239;28;20402;-71
2022/02/04 03:30:32;;;;;;;0.40;0.20;;;6.60;99.90;;;;;;5031284;28;20391;-73
2022/02/04 03:33:02;;;;;;;0.40;0.20;;;6.70;99.90;;;;;;5031806;28;20732;-71
2022/02/04 03:35:28;;;;;;;0.40;0.30;;;6.70;99.90;;;;;;5015122;28;20390;-72
2022/02/04 03:37:55;;;;;;;0.40;0.20;;;6.70;99.90;;;;;;5030677;28;20485;-71
2022/02/04 03:40:22;;;;;;;0.40;0.20;;;6.80;99.90;;;;;;5032231;28;20390;-71
2022/02/04 03:42:48;;;;;;;0.40;0.20;;;6.80;99.90;;;;;;5031379;28;20446;-71
2022/02/04 03:45:15;;;;;;;0.40;0.30;;;6.90;99.90;;;;;;5032059;28;20458;-70
2022/02/04 03:47:41;;;;;;;0.40;0.30;;;6.90;99.90;;;;;;5031106;28;20483;-71
2022/02/04 03:50:07;;;;;;;0.40;0.20;;;6.90;99.90;;;;;;5032455;28;20379;-72
2022/02/04 03:52:33;;;;;;;0.40;0.20;;;7.00;99.90;;;;;;5032055;28;20391;-70
2022/02/04 03:54:59;;;;;;;0.40;0.20;;;6.90;99.90;;;;;;5031747;28;20391;-70
2022/02/04 03:57:25;;;;;;;0.40;0.20;;;7.00;99.90;;;;;;5031767;28;20379;-70
2022/02/04 03:59:51;;;;;;;0.40;0.40;;;7.00;99.90;;;;;;5031119;28;20474;-71
2022/02/04 04:02:16;;;;;;;0.55;0.50;;;7.00;99.90;;;;;;5032038;28;20383;-70
2022/02/04 04:04:42;;;;;;;0.40;0.20;;;6.90;99.90;;;;;;5031764;28;20473;-71
2022/02/04 04:07:08;;;;;;;0.60;0.60;;;6.90;99.90;;;;;;5030832;28;20398;-70
2022/02/04 04:09:37;;;;;;;0.40;0.20;;;7.00;99.90;;;;;;5031630;28;20508;-70
2022/02/04 04:12:03;;;;;;;0.60;0.60;;;7.00;99.90;;;;;;5030811;28;20446;-71
2022/02/04 04:14:29;;;;;;;0.40;0.20;;;7.00;99.90;;;;;;5031441;28;20380;-71
2022/02/04 04:16:55;;;;;;;0.40;0.23;;;7.00;99.90;;;;;;4997517;28;20752;-70
2022/02/04 04:19:21;;;;;;;0.40;0.40;;;7.00;99.90;;;;;;5030688;28;20998;-70
2022/02/04 04:21:46;;;;;;;0.40;0.30;;;7.00;99.90;;;;;;5031327;28;20844;-70
2022/02/04 04:24:12;;;;;;;0.40;0.20;;;7.00;99.90;;;;;;5012560;28;20407;-70
2022/02/04 04:26:40;;;;;;;0.40;0.20;;;7.10;99.90;;;;;;5031240;28;20407;-70
2022/02/04 04:29:07;;;;;;;0.40;0.20;;;7.10;99.90;;;;;;5030983;28;20407;-71
2022/02/04 04:31:32;;;;;;;0.40;0.20;;;7.10;99.90;;;;;;5031587;28;20387;-70
2022/02/04 04:33:59;;;;;;;0.40;0.40;;;7.20;99.90;;;;;;5031965;28;20877;-69
2022/02/04 04:36:24;;;;;;;0.40;0.20;;;7.10;99.90;;;;;;5031033;28;20430;-70
2022/02/04 04:39:06;;;;;;;0.40;0.20;;;7.10;99.90;;;;;;5031502;28;20415;-70
2022/02/04 04:42:29;;;;;;;0.40;0.20;;;7.10;99.90;;;;;;5030987;28;20594;-70
2022/02/04 04:44:59;;;;;;;0.40;0.30;;;7.10;99.90;;;;;;5022342;28;20426;-71
2022/02/04 05:28:43;;;;;;;0.40;0.40;;;6.90;99.90;;;;;;5011405;28;20396;-70
2022/02/04 05:31:09;;;;;;;0.40;0.30;;;6.90;99.90;;;;;;5010456;28;20393;-70
2022/02/04 05:33:35;;;;;;;0.40;0.20;;;7.00;99.90;;;;;;5010704;28;20459;-68
2022/02/04 05:36:04;;;;;;;0.52;0.52;;;6.90;99.90;;;;;;5010604;28;20381;-70
2022/02/04 05:38:31;;;;;;;0.70;0.60;;;6.90;99.90;;;;;;5010964;28;20413;-68
2022/02/04 05:40:58;;;;;;;0.60;0.60;;;6.90;99.90;;;;;;5010397;28;20865;-70
2022/02/04 05:43:28;;;;;;;0.40;0.20;;;6.90;99.90;;;;;;5011297;28;20389;-69
2022/02/04 05:46:05;;;;;;;0.40;0.20;;;6.80;99.90;;;;;;5018934;28;20399;-70
2022/02/04 05:48:34;;;;;;;0.90;0.70;;;6.90;99.90;;;;;;5030831;28;20477;-68
2022/02/04 05:53:44;;;;;;;0.40;0.40;;;6.80;99.90;;;;;;5029825;28;20391;-70
2022/02/04 05:59:55;;;;;;;0.80;0.80;;;6.80;99.90;;;;;;5034645;28;20429;-69
2022/02/04 06:23:05;;;;;;;1.40;0.70;;;6.60;99.90;;;;;;5005477;28;20466;-71
2022/02/04 06:25:31;;;;;;;0.40;0.40;;;6.60;99.90;;;;;;5033550;28;20379;-70
2022/02/04 06:27:57;;;;;;;0.40;0.30;;;6.50;99.90;;;;;;5033841;28;20383;-71
2022/02/04 06:30:23;;;;;;;0.40;0.40;;;6.50;99.90;;;;;;5034243;28;20921;-71
2022/02/04 06:32:49;;;;;;;0.40;0.20;;;6.50;99.90;;;;;;5033401;28;20388;-71
2022/02/04 06:35:15;;;;;;;0.40;0.20;;;6.50;99.90;;;;;;5016291;28;20815;-71
2022/02/04 06:37:40;;;;;;;0.40;0.30;;;6.50;99.90;;;;;;5031608;28;20490;-71
2022/02/04 06:40:07;;;;;;;0.40;0.20;;;6.50;99.90;;;;;;5033690;28;20391;-69
2022/02/04 06:42:33;;;;;;;0.40;0.20;;;6.50;99.90;;;;;;5033984;28;20387;-71
2022/02/04 06:44:59;;;;;;;0.40;0.20;;;6.50;99.90;;;;;;5033197;28;20407;-70
2022/02/04 06:47:25;;;;;;;0.40;0.20;;;6.50;99.90;;;;;;5034011;28;20420;-70
2022/02/04 06:49:51;;;;;;;0.40;0.20;;;6.50;99.90;;;;;;5032622;28;20379;-69
2022/02/04 06:52:17;;;;;;;0.40;0.40;;;6.50;99.90;;;;;;5033261;28;20388;-70
2022/02/04 06:54:43;;;;;;;0.40;0.20;;;6.60;99.90;;;;;;5033788;28;20398;-70
2022/02/04 06:57:08;;;;;;;0.90;0.40;;;6.50;99.90;;;;;;5031378;28;20389;-70
2022/02/04 06:59:36;;;;;;;0.40;0.20;;;6.60;99.90;;;;;;5033353;28;20537;-70
2022/02/04 07:02:03;;;;;;;0.50;0.50;;;6.50;99.90;;;;;;5032655;28;20481;-70
2022/02/04 07:04:32;;;;;;;0.40;0.20;;;6.50;99.90;;;;;;5033473;28;20380;-70
2022/02/04 07:06:59;;;;;;;0.50;0.50;;;6.50;99.90;;;;;;5032717;28;20430;-70
2022/02/04 07:19:47;;;;;;;0.40;0.20;;;6.50;99.90;;;;;;5033100;28;20418;-70
2022/02/04 07:22:35;;;;;;;0.40;0.20;;;6.50;99.90;;;;;;5032344;28;20506;-70
2022/02/04 07:25:05;;;;;;;0.40;0.20;;;6.50;99.90;;;;;;5033086;28;20387;-69
2022/02/04 07:27:32;;;;;;;0.90;0.60;;;6.50;99.90;;;;;;5032465;28;20383;-70
2022/02/04 07:29:59;;;;;;;0.80;0.80;;;6.60;99.90;;;;;;5033334;28;20735;-70
2022/02/04 07:42:48;;;;;;;0.40;0.20;;;6.60;99.90;;;;;;5032977;28;20880;-70
2022/02/04 07:45:14;;;;;;;0.40;0.20;;;6.60;99.90;;;;;;5032675;28;20383;-70
2022/02/04 07:47:40;;;;;;;0.40;0.30;;;6.60;99.90;;;;;;5031410;28;21372;-70
2022/02/04 07:50:06;;;;;;;0.40;0.20;;;6.50;99.90;;;;;;5032748;28;20756;-70
2022/02/04 07:52:33;;;;;;;0.40;0.20;;;6.50;99.90;;;;;;5030897;28;20482;-69
2022/02/04 07:54:58;;;;;;;0.40;0.20;;;6.60;99.90;;;;;;5032265;28;20862;-70
2022/02/04 07:57:24;;;;;;;0.80;0.80;;;6.50;99.90;;;;;;5031879;28;20415;-72
2022/02/04 07:59:50;;;;;;;0.40;0.20;;;6.50;99.90;;;;;;5031820;28;20529;-70
2022/02/04 08:02:15;;;;;;;0.40;0.20;;;6.40;99.90;;;;;;5031922;28;20449;-70
2022/02/04 08:04:44;;;;;;;0.40;0.20;;;6.50;99.90;;;;;;5031547;28;20371;-70
2022/02/04 08:07:14;;;;;;;0.40;0.20;;;6.40;99.90;;;;;;5032313;28;20383;-70
2022/02/04 08:10:11;;;;;;;0.40;0.30;;;6.40;99.90;;;;;;5031595;28;20453;-68
2022/02/04 08:15:43;;;;;;;0.40;0.20;;;6.50;99.90;;;;;;5032297;28;20382;-70
2022/02/04 08:39:10;;;;;;;0.40;0.20;;;6.50;99.90;;;;;;5031032;28;20410;-70
2022/02/04 08:54:43;;;;;;;0.40;0.30;;;6.80;99.90;;;;;;5011789;28;20384;-70
2022/02/04 09:02:32;;;;;;;0.40;0.20;;;6.90;99.90;;;;;;5010590;28;20396;-69
2022/02/04 09:04:59;;;;;;;0.40;0.20;;;6.90;99.90;;;;;;5010089;28;20846;-70
2022/02/04 09:07:31;;;;;;;0.40;0.20;;;6.90;99.90;;;;;;5011307;28;20424;-68
2022/02/04 09:10:09;;;;;;;0.40;0.20;;;6.90;99.90;;;;;;5011593;28;20511;-70
2022/02/04 09:18:34;;;;;;;0.40;0.20;;;7.00;99.90;;;;;;5011114;28;20881;-70
2022/02/04 09:23:20;;;;;;;0.40;0.20;;;7.30;99.90;;;;;;5010888;28;20392;-71
2022/02/04 09:25:46;;;;;;;0.40;0.20;;;7.40;99.90;;;;;;5011168;28;20385;-69
2022/02/04 09:28:12;;;;;;;0.50;0.40;;;7.40;99.90;;;;;;5010180;28;20405;-71
2022/02/04 09:30:38;;;;;;;0.40;0.40;;;7.40;99.90;;;;;;5010538;28;20431;-69
2022/02/04 09:33:05;;;;;;;0.40;0.20;;;7.30;99.90;;;;;;5010559;28;20801;-70
2022/02/04 09:35:31;;;;;;;0.40;0.20;;;7.40;99.90;;;;;;4992941;28;20511;-70
2022/02/04 09:37:57;;;;;;;0.40;0.20;;;7.60;99.90;;;;;;5010527;28;20512;-70
2022/02/04 09:40:23;;;;;;;0.40;0.20;;;7.50;99.90;;;;;;5010176;28;20377;-69
2022/02/04 09:42:50;;;;;;;0.40;0.20;;;7.30;99.90;;;;;;5010958;28;20446;-69
2022/02/04 09:45:22;;;;;;;0.40;0.20;;;7.40;99.90;;;;;;5017385;28;20408;-69
2022/02/04 09:47:55;;;;;;;0.40;0.20;;;7.40;99.90;;;;;;5030779;28;20383;-70
2022/02/04 09:50:26;;;;;;;0.40;0.30;;;7.40;99.90;;;;;;5030961;28;20378;-71
2022/02/04 10:18:09;;;;;;;0.40;0.20;;;7.40;99.90;;;;;;5029580;28;20383;-72
2022/02/04 10:20:38;;;;;;;0.50;0.50;;;7.40;99.90;;;;;;5030183;28;20402;-71
2022/02/04 10:23:04;;;;;;;0.40;0.30;;;7.30;99.90;;;;;;5030221;28;20384;-71
2022/02/04 10:25:35;;;;;;;0.40;0.20;;;7.30;99.90;;;;;;5030304;28;20406;-71
2022/02/04 10:28:26;;;;;;;1.10;0.70;;;7.30;99.90;;;;;;5029770;28;20395;-70
2022/02/04 10:31:09;;;;;;;0.40;0.20;;;7.40;99.90;;;;;;5029417;28;20399;-71
2022/02/04 10:33:48;;;;;;;0.40;0.20;;;7.40;99.90;;;;;;5030091;28;20477;-70
2022/02/04 10:36:37;;;;;;;0.70;0.40;;;7.40;99.90;;;;;;5029934;28;20945;-71
2022/02/04 10:39:27;;;;;;;0.40;0.20;;;7.30;99.90;;;;;;5028127;28;20415;-71
2022/02/04 10:42:10;;;;;;;0.40;0.20;;;7.50;99.90;;;;;;5029459;28;20444;-73
2022/02/04 10:44:51;;;;;;;0.40;0.20;;;7.40;99.90;;;;;;5033366;28;20380;-69
2022/02/04 10:47:39;;;;;;;0.40;0.20;;;7.40;99.90;;;;;;5033486;28;20444;-69
2022/02/04 10:50:15;;;;;;;0.40;0.20;;;7.40;99.90;;;;;;5033040;28;20422;-70
2022/02/04 10:56:02;;;;;;;0.40;0.20;;;7.30;99.90;;;;;;5032987;28;20379;-70
2022/02/04 11:03:23;;;;;;;0.40;0.20;;;7.30;99.90;;;;;;5032835;28;20910;-70
2022/02/04 11:08:52;;;;;;;0.40;0.20;;;7.30;99.90;;;;;;5032443;28;20426;-70
2022/02/04 11:51:47;;;;;;;0.40;0.30;;;7.60;99.90;;;;;;5032695;28;20388;-69
2022/02/04 11:56:56;;;;;;;0.40;0.20;;;7.90;99.90;;;;;;5031579;28;20388;-68
2022/02/04 11:59:46;;;;;;;0.40;0.20;;;7.90;99.90;;;;;;5032243;28;20473;-71
2022/02/04 12:02:30;;;;;;;0.40;0.20;;;7.70;99.90;;;;;;5032643;28;20397;-71
2022/02/04 12:05:08;;;;;;;0.40;0.20;;;7.80;99.90;;;;;;5031923;28;20394;-71
2022/02/04 12:07:47;;;;;;;0.55;0.55;;;7.90;99.90;;;;;;5032348;28;20472;-70
2022/02/04 12:10:13;;;;;;;0.40;0.20;;;7.90;99.90;;;;;;5026894;28;20399;-70
2022/02/04 12:15:31;;;;;;;0.40;0.20;;;7.70;99.90;;;;;;5032314;28;20398;-70
2022/02/04 12:18:13;;;;;;;0.40;0.20;;;7.70;99.90;;;;;;5031176;28;20423;-71
2022/02/04 12:20:47;;;;;;;0.40;0.20;;;7.60;99.90;;;;;;5032265;28;20394;-70
2022/02/04 12:23:41;;;;;;;0.40;0.22;;;7.50;99.90;;;;;;5031647;28;20383;-69
2022/02/04 12:26:10;;;;;;;0.40;0.20;;;7.50;99.90;;;;;;5011587;28;20397;-70
2022/02/04 12:28:59;;;;;;;0.40;0.20;;;7.50;99.90;;;;;;5011979;28;20939;-71
2022/02/04 12:31:36;;;;;;;0.40;0.20;;;7.40;99.90;;;;;;5012047;28;20389;-71
2022/02/04 12:34:03;;;;;;;0.40;0.20;;;7.40;99.90;;;;;;5011311;28;20380;-71
2022/02/04 12:36:38;;;;;;;0.40;0.20;;;7.40;99.90;;;;;;5011814;28;20400;-70
2022/02/04 12:39:13;;;;;;;0.40;0.20;;;7.40;99.90;;;;;;5019004;28;20417;-71
2022/02/04 12:41:43;;;;;;;0.40;0.20;;;7.40;99.90;;;;;;5031605;28;20937;-71
2022/02/04 12:44:29;;;;;;;0.40;0.20;;;7.40;99.90;;;;;;5030834;28;20739;-70
2022/02/04 12:47:00;;;;;;;0.40;0.20;;;7.30;99.90;;;;;;5031648;28;20382;-70
2022/02/04 12:49:28;;;;;;;0.40;0.20;;;7.40;99.90;;;;;;5030931;28;20836;-71
2022/02/04 12:54:38;;;;;;;0.40;0.20;;;7.40;99.90;;;;;;5031184;28;20478;-70
2022/02/04 13:08:20;;;;;;;0.40;0.20;;;7.90;99.90;;;;;;5029389;28;20429;-69
2022/02/04 13:11:00;;;;;;;0.40;0.20;;;7.90;99.90;;;;;;5029358;28;20387;-69
2022/02/04 13:13:33;;;;;;;0.40;0.20;;;7.80;99.90;;;;;;5028372;28;20463;-70
2022/02/04 13:15:59;;;;;;;0.40;0.20;;;8.10;99.90;;;;;;5028388;28;20477;-69
2022/02/04 13:18:25;;;;;;;0.40;0.20;;;8.10;99.90;;;;;;5029515;28;20457;-71
2022/02/04 13:20:56;;;;;;;0.40;0.20;;;8.20;99.90;;;;;;5030334;28;20856;-70
2022/02/04 13:23:24;;;;;;;0.40;0.20;;;8.30;99.90;;;;;;5028696;28;20798;-69
2022/02/04 13:25:57;;;;;;;0.40;0.20;;;8.20;99.90;;;;;;5029832;28;20895;-71
2022/02/04 13:28:31;;;;;;;0.40;0.20;;;8.30;99.90;;;;;;5028436;28;20402;-71
2022/02/04 13:31:05;;;;;;;0.40;0.20;;;8.20;99.90;;;;;;5012581;28;20441;-70
2022/02/04 13:33:43;;;;;;;0.40;0.20;;;8.50;99.90;;;;;;5030214;28;20455;-71
2022/02/04 13:36:30;;;;;;;0.40;0.20;;;8.20;99.90;;;;;;5029454;28;20775;-70
2022/02/04 13:39:10;;;;;;;0.40;0.20;;;8.30;99.90;;;;;;5028899;28;20907;-69
2022/02/04 13:53:06;;;;;;;0.40;0.20;;;8.40;99.90;;;;;;5029354;28;20390;-71
2022/02/04 14:03:49;;;;;;;0.40;0.20;;;8.60;99.90;;;;;;5030096;28;20390;-72
2022/02/04 14:06:23;;;;;;;0.40;0.20;;;8.80;99.90;;;;;;5012236;28;20395;-68
2022/02/04 14:08:54;;;;;;;0.40;0.20;;;8.60;99.90;;;;;;5030014;28;20752;-68
2022/02/04 14:11:33;;;;;;;0.40;0.20;;;8.90;99.90;;;;;;5027691;28;20470;-70
2022/02/04 14:14:28;;;;;;;0.40;0.20;;;9.30;99.90;;;;;;5026948;28;20802;-71
2022/02/04 14:17:01;;;;;;;0.40;0.20;;;9.30;99.30;;;;;;5020767;28;20399;-71
2022/02/04 14:19:28;;;;;;;0.40;0.20;;;9.40;99.60;;;;;;5010784;28;20422;-70
2022/02/04 14:21:54;;;;;;;0.40;0.20;;;9.30;99.90;;;;;;5028205;28;20386;-70
2022/02/04 14:24:22;;;;;;;0.40;0.20;;;9.20;99.50;;;;;;5022253;28;20386;-72
2022/02/04 14:26:51;;;;;;;0.40;0.20;;;9.10;99.90;;;;;;5023802;28;20410;-71
2022/02/04 14:53:24;;;;;;;0.40;0.20;;;8.70;99.90;;;;;;5029469;28;20821;-69
2022/02/04 15:01:18;;;;;;;0.40;0.20;;;8.70;99.90;;;;;;5038148;28;20390;-70
2022/02/04 15:03:55;;;;;;;0.40;0.20;;;8.70;99.90;;;;;;5042765;28;20689;-69
2022/02/04 15:06:33;;;;;;;0.40;0.20;;;8.60;99.90;;;;;;5013143;28;20393;-70
2022/02/04 15:09:00;;;;;;;0.40;0.20;;;8.70;99.90;;;;;;5036860;28;20406;-70
2022/02/04 15:11:31;;;;;;;0.40;0.20;;;8.70;99.90;;;;;;5032636;28;20379;-70
2022/02/04 15:13:59;;;;;;;0.40;0.20;;;8.60;99.90;;;;;;5036821;28;20379;-72
2022/02/04 15:16:26;;;;;;;0.40;0.20;;;8.60;99.90;;;;;;5039555;28;20390;-71
2022/02/04 15:18:52;;;;;;;0.40;0.20;;;8.70;99.90;;;;;;5035701;28;20421;-71
2022/02/04 15:21:19;;;;;;;0.40;0.20;;;8.60;99.90;;;;;;5039358;28;20472;-68
2022/02/04 15:23:50;;;;;;;0.40;0.20;;;8.50;99.90;;;;;;5043320;28;20380;-68
2022/02/04 15:26:17;;;;;;;0.40;0.20;;;8.50;99.90;;;;;;5016998;28;20891;-68
2022/02/04 15:28:47;;;;;;;0.40;0.20;;;8.50;99.90;;;;;;5013614;28;20410;-69
2022/02/04 15:33:53;;;;;;;0.40;0.20;;;8.50;99.90;;;;;;5012431;28;20396;-70
2022/02/04 15:36:33;;;;;;;0.40;0.25;;;8.60;99.90;;;;;;5013170;28;20467;-70
2022/02/04 15:39:03;;;;;;;0.40;0.20;;;8.40;99.90;;;;;;5029390;28;20516;-70
2022/02/04 15:41:29;;;;;;;0.40;0.20;;;8.50;99.90;;;;;;5031595;28;20747;-70
2022/02/04 15:43:59;;;;;;;0.40;0.20;;;8.40;99.90;;;;;;5032094;28;20655;-70
2022/02/04 15:54:19;;;;;;;0.40;0.20;;;8.40;99.90;;;;;;5032228;28;20399;-69
2022/02/04 15:57:13;;;;;;;0.40;0.20;;;8.50;99.90;;;;;;5014212;28;20406;-71
2022/02/04 16:02:22;;;;;;;0.40;0.20;;;8.50;99.90;;;;;;5031632;28;20412;-69
2022/02/04 16:04:49;;;;;;;0.80;0.60;;;8.50;99.90;;;;;;5027871;28;20422;-71
2022/02/04 16:07:17;;;;;;;0.40;0.20;;;8.40;99.90;;;;;;5032188;28;20413;-69
2022/02/04 16:09:44;;;;;;;0.40;0.20;;;8.50;99.90;;;;;;5014292;28;20455;-70
2022/02/04 16:12:23;;;;;;;0.40;0.20;;;8.50;99.90;;;;;;5031333;28;20391;-70
2022/02/04 16:15:03;;;;;;;0.40;0.20;;;8.40;99.90;;;;;;5031913;28;20429;-71
2022/02/04 16:17:34;;;;;;;0.40;0.20;;;8.40;99.90;;;;;;5014552;28;20398;-70
2022/02/04 16:23:09;;;;;;;0.40;0.20;;;8.40;99.90;;;;;;4966201;28;20395;-71
2022/02/04 16:30:57;;;;;;;0.40;0.20;;;8.40;99.90;;;;;;5031497;28;20394;-70
2022/02/04 16:33:23;;;;;;;0.40;0.20;;;8.50;99.90;;;;;;5031255;28;20454;-69
2022/02/04 16:35:49;;;;;;;0.40;0.20;;;8.40;99.90;;;;;;5013754;28;21010;-70
2022/02/04 16:38:33;;;;;;;0.40;0.20;;;8.40;99.90;;;;;;5031062;28;20899;-71
2022/02/04 16:41:09;;;;;;;0.40;0.20;;;8.50;99.90;;;;;;5031376;28;20407;-69
2022/02/04 16:43:35;;;;;;;0.40;0.20;;;8.50;99.90;;;;;;5032029;28;20407;-69
2022/02/04 16:46:06;;;;;;;0.40;0.20;;;8.40;99.90;;;;;;5031065;28;20449;-68
2022/02/04 16:48:37;;;;;;;0.40;0.20;;;8.40;99.90;;;;;;5031169;28;20383;-69
2022/02/04 16:51:04;;;;;;;0.40;0.20;;;8.40;99.90;;;;;;5031368;28;20390;-69
2022/02/04 16:53:34;;;;;;;0.40;0.20;;;8.60;99.90;;;;;;5030728;28;20411;-69
2022/02/04 16:56:00;;;;;;;0.40;0.20;;;8.40;99.90;;;;;;5031232;28;20787;-69
2022/02/04 16:58:26;;;;;;;0.40;0.20;;;8.40;99.90;;;;;;5030840;28;20406;-69
2022/02/04 17:00:52;;;;;;;0.40;0.30;;;8.50;99.90;;;;;;5031658;28;20508;-69
2022/02/04 17:03:18;;;;;;;0.40;0.20;;;8.50;99.90;;;;;;5031026;28;20441;-70
2022/02/04 17:08:10;;;;;;;0.40;0.20;;;8.60;99.90;;;;;;5031204;28;20844;-71
2022/02/04 17:10:41;;;;;;;0.40;0.20;;;8.60;99.90;;;;;;5030524;28;20525;-71
2022/02/04 17:13:07;;;;;;;0.40;0.20;;;8.60;99.90;;;;;;5030330;28;20379;-70
2022/02/04 17:15:35;;;;;;;0.40;0.20;;;8.60;99.90;;;;;;5027776;28;20402;-70
2022/02/04 17:18:07;;;;;;;0.40;0.20;;;8.60;99.90;;;;;;5029968;28;20384;-70
2022/02/04 17:20:33;;;;;;;0.40;0.20;;;8.60;99.90;;;;;;5028153;28;20391;-70
2022/02/04 17:23:02;;;;;;;0.40;0.20;;;8.70;99.90;;;;;;5030640;28;20379;-70
2022/02/04 17:25:29;;;;;;;0.40;0.20;;;8.70;99.90;;;;;;5029982;28;20379;-70
2022/02/04 17:27:57;;;;;;;0.40;0.20;;;8.70;99.90;;;;;;5029491;28;20898;-70
2022/02/04 17:30:24;;;;;;;0.40;0.20;;;8.70;99.90;;;;;;5027657;28;20390;-72
2022/02/04 17:32:51;;;;;;;0.40;0.30;;;8.70;99.90;;;;;;5027739;28;20387;-70
2022/02/04 17:35:19;;;;;;;0.40;0.20;;;8.70;99.90;;;;;;5030383;28;20745;-70
2022/02/04 17:37:45;;;;;;;0.40;0.20;;;8.70;99.90;;;;;;5029330;28;20422;-70
2022/02/04 17:40:15;;;;;;;0.40;0.20;;;8.70;99.90;;;;;;5012663;28;20480;-71
2022/02/04 17:42:43;;;;;;;0.40;0.20;;;8.80;99.90;;;;;;5013843;28;20483;-70
2022/02/04 17:45:11;;;;;;;0.40;0.20;;;8.80;99.90;;;;;;5015376;28;20423;-70
2022/02/04 17:47:38;;;;;;;0.40;0.20;;;8.80;99.90;;;;;;5028384;28;20395;-70
2022/02/04 17:50:17;;;;;;;0.40;0.20;;;8.80;99.90;;;;;;5030543;28;20398;-69
2022/02/04 17:52:47;;;;;;;0.40;0.20;;;8.80;99.90;;;;;;5029287;28;20372;-69
2022/02/04 17:57:57;;;;;;;0.40;0.20;;;8.70;99.90;;;;;;5029745;28;20458;-70
2022/02/04 18:08:23;;;;;;;0.40;0.30;;;8.80;99.90;;;;;;5030720;28;20391;-69
2022/02/04 18:10:49;;;;;;;0.40;0.20;;;8.70;99.90;;;;;;5029352;28;20486;-70
2022/02/04 18:13:16;;;;;;;0.40;0.20;;;8.70;99.90;;;;;;5030533;28;20514;-69
2022/02/04 18:15:43;;;;;;;0.40;0.20;;;8.80;99.90;;;;;;5030151;28;20387;-71
2022/02/04 18:18:10;;;;;;;0.40;0.20;;;8.70;99.90;;;;;;5030244;28;20387;-69
2022/02/04 18:20:38;;;;;;;0.40;0.20;;;8.70;99.90;;;;;;5030390;28;20921;-69
2022/02/04 18:23:04;;;;;;;0.40;0.20;;;8.70;99.90;;;;;;5029344;28;20829;-69
2022/02/04 18:25:33;;;;;;;0.40;0.20;;;8.70;99.90;;;;;;5030723;28;20379;-69
2022/02/04 18:27:59;;;;;;;0.40;0.20;;;8.70;99.90;;;;;;5027193;28;20397;-69
2022/02/04 18:30:28;;;;;;;0.40;0.20;;;8.70;99.90;;;;;;5030103;28;20433;-69
2022/02/04 18:32:54;;;;;;;0.40;0.20;;;8.70;99.90;;;;;;5029314;28;20442;-68
2022/02/04 18:35:20;;;;;;;0.40;0.20;;;8.70;99.90;;;;;;5029820;28;20419;-69
2022/02/04 18:38:06;;;;;;;0.40;0.20;;;8.60;99.90;;;;;;5029613;28;20415;-69
2022/02/04 18:40:57;;;;;;;0.40;0.20;;;8.60;99.90;;;;;;5030352;28;20410;-67
2022/02/04 18:43:39;;;;;;;0.40;0.20;;;8.60;99.90;;;;;;5030120;28;20395;-69
2022/02/04 18:48:42;;;;;;;0.40;0.30;;;8.50;99.90;;;;;;5029809;28;20483;-69
2022/02/04 18:54:27;;;;;;;0.40;0.25;;;8.50;99.90;;;;;;5013106;28;20466;-69
2022/02/04 18:59:27;;;;;;;0.40;0.20;;;8.50;99.90;;;;;;5029252;28;20407;-69
2022/02/04 19:01:54;;;;;;;0.40;0.20;;;8.50;99.90;;;;;;5030077;28;20391;-68
2022/02/04 19:04:27;;;;;;;0.40;0.20;;;8.50;99.90;;;;;;5030312;28;20387;-69
2022/02/04 19:07:00;;;;;;;0.40;0.20;;;8.50;99.90;;;;;;5033591;28;20383;-69
2022/02/04 19:09:26;;;;;;;0.40;0.38;;;8.40;99.90;;;;;;5032792;28;20421;-69
2022/02/04 19:11:57;;;;;;;0.40;0.20;;;8.50;99.90;;;;;;5033107;28;20747;-68
2022/02/04 19:17:19;;;;;;;0.40;0.20;;;8.40;99.90;;;;;;5033288;28;20393;-70
2022/02/04 19:19:55;;;;;;;0.40;0.20;;;8.50;99.90;;;;;;5033415;28;20510;-70
2022/02/04 19:24:56;;;;;;;0.40;0.20;;;8.40;99.90;;;;;;5033139;28;20383;-69
2022/02/04 19:27:22;;;;;;;0.40;0.20;;;8.50;99.90;;;;;;5032415;28;20395;-70
2022/02/04 19:29:48;;;;;;;0.40;0.20;;;8.50;99.90;;;;;;5033227;28;20383;-66
2022/02/04 19:32:15;;;;;;;0.40;0.20;;;8.50;99.90;;;;;;5032772;28;20458;-70
2022/02/04 19:34:40;;;;;;;0.40;0.20;;;8.50;99.90;;;;;;5032900;28;20383;-70
2022/02/04 19:37:06;;;;;;;0.40;0.20;;;8.40;99.90;;;;;;5032898;28;20740;-70
2022/02/04 19:39:32;;;;;;;0.40;0.20;;;8.40;99.90;;;;;;5031775;28;20966;-67
2022/02/04 19:42:05;;;;;;;0.40;0.30;;;8.40;99.90;;;;;;5032851;28;20882;-70
2022/02/04 19:44:34;;;;;;;0.40;0.20;;;8.40;99.90;;;;;;5031972;28;20425;-71
2022/02/04 19:47:02;;;;;;;0.40;0.20;;;8.40;99.90;;;;;;5032731;28;20395;-70
2022/02/04 19:49:37;;;;;;;0.40;0.20;;;8.40;99.90;;;;;;5031987;28;20379;-70
2022/02/04 19:52:22;;;;;;;0.40;0.22;;;8.40;99.90;;;;;;5031430;28;20395;-69
2022/02/04 20:17:08;;;;;;;0.40;0.20;;;8.40;99.90;;;;;;5031748;28;20390;-71
2022/02/04 20:25:01;;;;;;;0.40;0.20;;;8.40;99.90;;;;;;5031028;28;20386;-70
2022/02/04 20:27:27;;;;;;;0.40;0.20;;;8.40;99.90;;;;;;5032145;28;20391;-70
2022/02/04 20:29:53;;;;;;;0.40;0.20;;;8.40;99.90;;;;;;5031325;28;20847;-71
2022/02/04 20:32:19;;;;;;;0.40;0.20;;;8.40;99.90;;;;;;5030636;28;20399;-69
2022/02/04 20:34:45;;;;;;;0.40;0.20;;;8.40;99.90;;;;;;5031351;28;20407;-69
2022/02/04 20:37:11;;;;;;;0.40;0.20;;;8.50;99.90;;;;;;5031571;28;20411;-68
2022/02/04 20:39:48;;;;;;;0.40;0.20;;;8.40;99.90;;;;;;5031665;28;20930;-70
2022/02/04 20:42:17;;;;;;;0.40;0.20;;;8.40;99.90;;;;;;5014341;28;20879;-69